Hartford, Connecticut
Traffic Map
Current Weather Conditions
Hartford, Connecticut
Overcast
Overcast
34°
Feels Like: 29°
Wind Chill: 29° Ceiling: 10000
Heat Index: 34° Visibility: 10mi
Dew Point: 29° Wind: 6mph
Humidity: 82% Direction: 230° (SW)
Pressure: 29.89in Gusts: 0mph
Raw Report DataKHFD 271053Z AUTO 23005KT 10SM OVC100 01/M02 A2989 RMK AO2 SLP123 T00111017
Traffic Incident Summary
Active as of:
Severity:
Category:
InformationThere was an issue retrieving the traffic information for this location. Please try a different location or try again shortly.
Advertisements
Track Severe Weather on mobile